<?xml version="1.0" encoding="utf-8"?>
<gpx xmlns:xsi="http://www.w3.org/2001/XMLSchema-instance" xmlns:xsd="http://www.w3.org/2001/XMLSchema" version="1.1" creator="Shapelink.com" xmlns="http://www.topografix.com/GPX/1/1" xmlns:gpxtpx="http://www.garmin.com/xmlschemas/TrackPointExtension/v1">
  <metadata>
    <name>Cycling 11.68 km, 2020-06-02</name>
    <desc></desc>
    <author><name>Marian Moron</name></author> 
    <time>2020-06-02T17:53:01Z</time>
  </metadata>
  <trk>
    <name>Cycling 11.68 km, 2020-06-02</name>
    <trkseg>
      <trkpt lat="51.228513435257" lon="4.447281745402">
        <ele>0</ele>
        <time>2020-06-02T17:53:01Z</time>
      </trkpt>
      <trkpt lat="51.228136082119" lon="4.447269507828">
        <ele>0</ele>
        <time>2020-06-02T17:53:21Z</time>
      </trkpt>
      <trkpt lat="51.228105655822" lon="4.447259784824">
        <ele>0</ele>
        <time>2020-06-02T17:53:28Z</time>
      </trkpt>
      <trkpt lat="51.228097609198" lon="4.447268753457">
        <ele>0</ele>
        <time>2020-06-02T17:53:29Z</time>
      </trkpt>
      <trkpt lat="51.228019992804" lon="4.447316697925">
        <ele>0</ele>
        <time>2020-06-02T17:53:39Z</time>
      </trkpt>
      <trkpt lat="51.228151756272" lon="4.447029701669">
        <ele>0</ele>
        <time>2020-06-02T17:53:54Z</time>
      </trkpt>
      <trkpt lat="51.227767613795" lon="4.44768005329">
        <ele>0</ele>
        <time>2020-06-02T17:54:23Z</time>
      </trkpt>
      <trkpt lat="51.227352039193" lon="4.448242394961">
        <ele>0</ele>
        <time>2020-06-02T17:54:43Z</time>
      </trkpt>
      <trkpt lat="51.226962197024" lon="4.448891824573">
        <ele>0</ele>
        <time>2020-06-02T17:55:03Z</time>
      </trkpt>
      <trkpt lat="51.226974686055" lon="4.449782652905">
        <ele>0</ele>
        <time>2020-06-02T17:55:22Z</time>
      </trkpt>
      <trkpt lat="51.226890950874" lon="4.450647413528">
        <ele>0</ele>
        <time>2020-06-02T17:55:44Z</time>
      </trkpt>
      <trkpt lat="51.226897237299" lon="4.450886632954">
        <ele>0</ele>
        <time>2020-06-02T17:55:49Z</time>
      </trkpt>
      <trkpt lat="51.226899919507" lon="4.450977157474">
        <ele>0</ele>
        <time>2020-06-02T17:55:54Z</time>
      </trkpt>
      <trkpt lat="51.226946271414" lon="4.45132953255">
        <ele>0</ele>
        <time>2020-06-02T17:56:10Z</time>
      </trkpt>
      <trkpt lat="51.226906122113" lon="4.451844684124">
        <ele>0</ele>
        <time>2020-06-02T17:56:27Z</time>
      </trkpt>
      <trkpt lat="51.226349228677" lon="4.451812916723">
        <ele>0</ele>
        <time>2020-06-02T17:56:49Z</time>
      </trkpt>
      <trkpt lat="51.22619726483" lon="4.451816688578">
        <ele>0</ele>
        <time>2020-06-02T17:56:55Z</time>
      </trkpt>
      <trkpt lat="51.226003810578" lon="4.452634510561">
        <ele>0</ele>
        <time>2020-06-02T17:57:11Z</time>
      </trkpt>
      <trkpt lat="51.225956955757" lon="4.453256447541">
        <ele>0</ele>
        <time>2020-06-02T17:57:22Z</time>
      </trkpt>
      <trkpt lat="51.225420514157" lon="4.453248484736">
        <ele>0</ele>
        <time>2020-06-02T17:57:37Z</time>
      </trkpt>
      <trkpt lat="51.225067468529" lon="4.453247059813">
        <ele>0</ele>
        <time>2020-06-02T17:57:49Z</time>
      </trkpt>
      <trkpt lat="51.22501457874" lon="4.454141157086">
        <ele>0</ele>
        <time>2020-06-02T17:58:06Z</time>
      </trkpt>
      <trkpt lat="51.224997479664" lon="4.454336706813">
        <ele>0</ele>
        <time>2020-06-02T17:58:17Z</time>
      </trkpt>
      <trkpt lat="51.224994881275" lon="4.454352967699">
        <ele>0</ele>
        <time>2020-06-02T17:58:52Z</time>
      </trkpt>
      <trkpt lat="51.224455086915" lon="4.454426812238">
        <ele>0</ele>
        <time>2020-06-02T17:59:14Z</time>
      </trkpt>
      <trkpt lat="51.223912526528" lon="4.454517588215">
        <ele>1.8</ele>
        <time>2020-06-02T17:59:29Z</time>
      </trkpt>
      <trkpt lat="51.223338366378" lon="4.454472158317">
        <ele>1.6</ele>
        <time>2020-06-02T17:59:43Z</time>
      </trkpt>
      <trkpt lat="51.222786082987" lon="4.454343077057">
        <ele>0</ele>
        <time>2020-06-02T18:00:00Z</time>
      </trkpt>
      <trkpt lat="51.222220137099" lon="4.454294294399">
        <ele>0</ele>
        <time>2020-06-02T18:00:19Z</time>
      </trkpt>
      <trkpt lat="51.221665590595" lon="4.45424811013">
        <ele>0</ele>
        <time>2020-06-02T18:00:38Z</time>
      </trkpt>
      <trkpt lat="51.221117498154" lon="4.454236040194">
        <ele>0</ele>
        <time>2020-06-02T18:00:57Z</time>
      </trkpt>
      <trkpt lat="51.22059564106" lon="4.454466207168">
        <ele>0</ele>
        <time>2020-06-02T18:01:16Z</time>
      </trkpt>
      <trkpt lat="51.220184760322" lon="4.455100968455">
        <ele>0</ele>
        <time>2020-06-02T18:01:32Z</time>
      </trkpt>
      <trkpt lat="51.219907067975" lon="4.455358795699">
        <ele>0</ele>
        <time>2020-06-02T18:01:44Z</time>
      </trkpt>
      <trkpt lat="51.219591321802" lon="4.454630995322">
        <ele>0</ele>
        <time>2020-06-02T18:01:59Z</time>
      </trkpt>
      <trkpt lat="51.219578329857" lon="4.454568382529">
        <ele>0</ele>
        <time>2020-06-02T18:02:00Z</time>
      </trkpt>
      <trkpt lat="51.219367441253" lon="4.453844354007">
        <ele>0</ele>
        <time>2020-06-02T18:02:16Z</time>
      </trkpt>
      <trkpt lat="51.219321005527" lon="4.453882910747">
        <ele>0</ele>
        <time>2020-06-02T18:02:18Z</time>
      </trkpt>
      <trkpt lat="51.218837872811" lon="4.454354392622">
        <ele>0</ele>
        <time>2020-06-02T18:02:34Z</time>
      </trkpt>
      <trkpt lat="51.218364714556" lon="4.454830149266">
        <ele>0</ele>
        <time>2020-06-02T18:02:49Z</time>
      </trkpt>
      <trkpt lat="51.218056931188" lon="4.45522963062">
        <ele>0</ele>
        <time>2020-06-02T18:03:03Z</time>
      </trkpt>
      <trkpt lat="51.21756223145" lon="4.455710248766">
        <ele>0</ele>
        <time>2020-06-02T18:03:17Z</time>
      </trkpt>
      <trkpt lat="51.217084546969" lon="4.456131271603">
        <ele>0</ele>
        <time>2020-06-02T18:03:35Z</time>
      </trkpt>
      <trkpt lat="51.216615412026" lon="4.456503176506">
        <ele>0</ele>
        <time>2020-06-02T18:03:56Z</time>
      </trkpt>
      <trkpt lat="51.216380132093" lon="4.457302809766">
        <ele>0</ele>
        <time>2020-06-02T18:04:18Z</time>
      </trkpt>
      <trkpt lat="51.216036306555" lon="4.457974199956">
        <ele>0</ele>
        <time>2020-06-02T18:04:38Z</time>
      </trkpt>
      <trkpt lat="51.21565032006" lon="4.458614744754">
        <ele>0</ele>
        <time>2020-06-02T18:04:57Z</time>
      </trkpt>
      <trkpt lat="51.215172467941" lon="4.459051944658">
        <ele>0</ele>
        <time>2020-06-02T18:05:18Z</time>
      </trkpt>
      <trkpt lat="51.215096527927" lon="4.459119586591">
        <ele>0</ele>
        <time>2020-06-02T18:05:22Z</time>
      </trkpt>
      <trkpt lat="51.214610377727" lon="4.459577489788">
        <ele>0</ele>
        <time>2020-06-02T18:05:43Z</time>
      </trkpt>
      <trkpt lat="51.214404182987" lon="4.459804723097">
        <ele>0</ele>
        <time>2020-06-02T18:05:52Z</time>
      </trkpt>
      <trkpt lat="51.214663183697" lon="4.460555322242">
        <ele>0</ele>
        <time>2020-06-02T18:06:09Z</time>
      </trkpt>
      <trkpt lat="51.214988736693" lon="4.46126543681">
        <ele>5.2</ele>
        <time>2020-06-02T18:06:25Z</time>
      </trkpt>
      <trkpt lat="51.215289982179" lon="4.461982592174">
        <ele>4.2</ele>
        <time>2020-06-02T18:06:40Z</time>
      </trkpt>
      <trkpt lat="51.215563818852" lon="4.462736963174">
        <ele>0</ele>
        <time>2020-06-02T18:06:58Z</time>
      </trkpt>
      <trkpt lat="51.215922564172" lon="4.463353619557">
        <ele>0</ele>
        <time>2020-06-02T18:07:16Z</time>
      </trkpt>
      <trkpt lat="51.216160610132" lon="4.464053340569">
        <ele>0</ele>
        <time>2020-06-02T18:07:31Z</time>
      </trkpt>
      <trkpt lat="51.216704427804" lon="4.464076893708">
        <ele>0</ele>
        <time>2020-06-02T18:07:51Z</time>
      </trkpt>
      <trkpt lat="51.217057305794" lon="4.464722719103">
        <ele>0</ele>
        <time>2020-06-02T18:08:10Z</time>
      </trkpt>
      <trkpt lat="51.217295854668" lon="4.465508438409">
        <ele>0</ele>
        <time>2020-06-02T18:08:33Z</time>
      </trkpt>
      <trkpt lat="51.21766365244" lon="4.466078239971">
        <ele>0</ele>
        <time>2020-06-02T18:08:53Z</time>
      </trkpt>
      <trkpt lat="51.217596681059" lon="4.466925566242">
        <ele>0</ele>
        <time>2020-06-02T18:09:12Z</time>
      </trkpt>
      <trkpt lat="51.217555693568" lon="4.467811197796">
        <ele>0</ele>
        <time>2020-06-02T18:09:31Z</time>
      </trkpt>
      <trkpt lat="51.217532475705" lon="4.468673695306">
        <ele>0</ele>
        <time>2020-06-02T18:09:46Z</time>
      </trkpt>
      <trkpt lat="51.217110027945" lon="4.469208209069">
        <ele>0</ele>
        <time>2020-06-02T18:10:04Z</time>
      </trkpt>
      <trkpt lat="51.216642988477" lon="4.469676757279">
        <ele>0</ele>
        <time>2020-06-02T18:10:23Z</time>
      </trkpt>
      <trkpt lat="51.216175278457" lon="4.470150418448">
        <ele>0</ele>
        <time>2020-06-02T18:10:41Z</time>
      </trkpt>
      <trkpt lat="51.216147534368" lon="4.470257371492">
        <ele>0</ele>
        <time>2020-06-02T18:10:45Z</time>
      </trkpt>
      <trkpt lat="51.216392202029" lon="4.470859694826">
        <ele>0</ele>
        <time>2020-06-02T18:11:06Z</time>
      </trkpt>
      <trkpt lat="51.216295139627" lon="4.471678606456">
        <ele>0</ele>
        <time>2020-06-02T18:11:32Z</time>
      </trkpt>
      <trkpt lat="51.215766493194" lon="4.471981444503">
        <ele>0</ele>
        <time>2020-06-02T18:11:53Z</time>
      </trkpt>
      <trkpt lat="51.215668927878" lon="4.472092420859">
        <ele>0</ele>
        <time>2020-06-02T18:11:57Z</time>
      </trkpt>
      <trkpt lat="51.215684434393" lon="4.472959528414">
        <ele>0</ele>
        <time>2020-06-02T18:12:18Z</time>
      </trkpt>
      <trkpt lat="51.215709999188" lon="4.473844237959">
        <ele>3.4</ele>
        <time>2020-06-02T18:12:43Z</time>
      </trkpt>
      <trkpt lat="51.215785771564" lon="4.47471251898">
        <ele>6</ele>
        <time>2020-06-02T18:13:03Z</time>
      </trkpt>
      <trkpt lat="51.215868500917" lon="4.475571831368">
        <ele>3.4</ele>
        <time>2020-06-02T18:13:22Z</time>
      </trkpt>
      <trkpt lat="51.21596799407" lon="4.476335087182">
        <ele>0</ele>
        <time>2020-06-02T18:13:41Z</time>
      </trkpt>
      <trkpt lat="51.215804127925" lon="4.477183000186">
        <ele>0</ele>
        <time>2020-06-02T18:14:01Z</time>
      </trkpt>
      <trkpt lat="51.215761547873" lon="4.478067374455">
        <ele>0</ele>
        <time>2020-06-02T18:14:21Z</time>
      </trkpt>
      <trkpt lat="51.215504475" lon="4.47879618066">
        <ele>0</ele>
        <time>2020-06-02T18:14:40Z</time>
      </trkpt>
      <trkpt lat="51.215969921907" lon="4.479233464383">
        <ele>0</ele>
        <time>2020-06-02T18:14:57Z</time>
      </trkpt>
      <trkpt lat="51.216122556306" lon="4.4794047066">
        <ele>0</ele>
        <time>2020-06-02T18:15:04Z</time>
      </trkpt>
      <trkpt lat="51.216140409753" lon="4.480276005105">
        <ele>0</ele>
        <time>2020-06-02T18:15:24Z</time>
      </trkpt>
      <trkpt lat="51.216143427237" lon="4.480343730857">
        <ele>0</ele>
        <time>2020-06-02T18:15:26Z</time>
      </trkpt>
      <trkpt lat="51.216088106697" lon="4.480375079163">
        <ele>0</ele>
        <time>2020-06-02T18:15:29Z</time>
      </trkpt>
      <trkpt lat="51.215547725604" lon="4.480308694515">
        <ele>0</ele>
        <time>2020-06-02T18:15:54Z</time>
      </trkpt>
      <trkpt lat="51.214995442213" lon="4.480253625432">
        <ele>0</ele>
        <time>2020-06-02T18:16:14Z</time>
      </trkpt>
      <trkpt lat="51.214453720016" lon="4.480171482812">
        <ele>0</ele>
        <time>2020-06-02T18:16:34Z</time>
      </trkpt>
      <trkpt lat="51.21396388178" lon="4.479765798852">
        <ele>0</ele>
        <time>2020-06-02T18:16:55Z</time>
      </trkpt>
      <trkpt lat="51.213485778204" lon="4.479337064667">
        <ele>0</ele>
        <time>2020-06-02T18:17:20Z</time>
      </trkpt>
      <trkpt lat="51.213294084151" lon="4.479114106127">
        <ele>0</ele>
        <time>2020-06-02T18:17:31Z</time>
      </trkpt>
      <trkpt lat="51.213545122056" lon="4.478401979903">
        <ele>0</ele>
        <time>2020-06-02T18:17:59Z</time>
      </trkpt>
      <trkpt lat="51.214028673867" lon="4.478023704756">
        <ele>0</ele>
        <time>2020-06-02T18:18:19Z</time>
      </trkpt>
      <trkpt lat="51.214115007437" lon="4.477199763986">
        <ele>0</ele>
        <time>2020-06-02T18:18:39Z</time>
      </trkpt>
      <trkpt lat="51.214015262827" lon="4.476328046386">
        <ele>0</ele>
        <time>2020-06-02T18:19:01Z</time>
      </trkpt>
      <trkpt lat="51.213730781141" lon="4.475596055059">
        <ele>0</ele>
        <time>2020-06-02T18:19:22Z</time>
      </trkpt>
      <trkpt lat="51.213921804642" lon="4.474775634687">
        <ele>0</ele>
        <time>2020-06-02T18:19:44Z</time>
      </trkpt>
      <trkpt lat="51.213620559156" lon="4.474032495433">
        <ele>0</ele>
        <time>2020-06-02T18:20:03Z</time>
      </trkpt>
      <trkpt lat="51.213445545084" lon="4.472417135665">
        <ele>0</ele>
        <time>2020-06-02T18:20:43Z</time>
      </trkpt>
      <trkpt lat="51.213356864582" lon="4.471577269285">
        <ele>0</ele>
        <time>2020-06-02T18:21:02Z</time>
      </trkpt>
      <trkpt lat="51.213441857048" lon="4.470772606885">
        <ele>0</ele>
        <time>2020-06-02T18:21:19Z</time>
      </trkpt>
      <trkpt lat="51.213258544895" lon="4.469957970024">
        <ele>0</ele>
        <time>2020-06-02T18:21:37Z</time>
      </trkpt>
      <trkpt lat="51.213265501872" lon="4.469879766897">
        <ele>0</ele>
        <time>2020-06-02T18:21:39Z</time>
      </trkpt>
      <trkpt lat="51.213762213266" lon="4.469671811958">
        <ele>0</ele>
        <time>2020-06-02T18:22:07Z</time>
      </trkpt>
      <trkpt lat="51.214221541386" lon="4.469722606272">
        <ele>0</ele>
        <time>2020-06-02T18:22:35Z</time>
      </trkpt>
      <trkpt lat="51.214518595922" lon="4.468994219162">
        <ele>0</ele>
        <time>2020-06-02T18:23:03Z</time>
      </trkpt>
      <trkpt lat="51.214776842261" lon="4.468280081282">
        <ele>0</ele>
        <time>2020-06-02T18:23:26Z</time>
      </trkpt>
      <trkpt lat="51.215336753181" lon="4.468426010161">
        <ele>0</ele>
        <time>2020-06-02T18:23:47Z</time>
      </trkpt>
      <trkpt lat="51.215495925462" lon="4.468378149512">
        <ele>0</ele>
        <time>2020-06-02T18:23:53Z</time>
      </trkpt>
      <trkpt lat="51.215568093621" lon="4.468386950507">
        <ele>0</ele>
        <time>2020-06-02T18:23:57Z</time>
      </trkpt>
      <trkpt lat="51.216022392601" lon="4.467925023998">
        <ele>0.2</ele>
        <time>2020-06-02T18:24:17Z</time>
      </trkpt>
      <trkpt lat="51.216578364028" lon="4.467731821203">
        <ele>0</ele>
        <time>2020-06-02T18:24:34Z</time>
      </trkpt>
      <trkpt lat="51.217110698497" lon="4.467918821392">
        <ele>0</ele>
        <time>2020-06-02T18:24:52Z</time>
      </trkpt>
      <trkpt lat="51.217499199562" lon="4.468403295212">
        <ele>0</ele>
        <time>2020-06-02T18:25:11Z</time>
      </trkpt>
      <trkpt lat="51.217665915553" lon="4.467580611727">
        <ele>0</ele>
        <time>2020-06-02T18:25:33Z</time>
      </trkpt>
      <trkpt lat="51.217698521144" lon="4.46674636122">
        <ele>0</ele>
        <time>2020-06-02T18:25:54Z</time>
      </trkpt>
      <trkpt lat="51.217730372364" lon="4.465876152362">
        <ele>0</ele>
        <time>2020-06-02T18:26:15Z</time>
      </trkpt>
      <trkpt lat="51.21773657497" lon="4.465006781694">
        <ele>0</ele>
        <time>2020-06-02T18:26:35Z</time>
      </trkpt>
      <trkpt lat="51.217777227185" lon="4.464125173452">
        <ele>0</ele>
        <time>2020-06-02T18:26:54Z</time>
      </trkpt>
      <trkpt lat="51.21782290854" lon="4.463258065897">
        <ele>0</ele>
        <time>2020-06-02T18:27:12Z</time>
      </trkpt>
      <trkpt lat="51.217884012591" lon="4.462383079356">
        <ele>0</ele>
        <time>2020-06-02T18:27:30Z</time>
      </trkpt>
      <trkpt lat="51.21787236175" lon="4.461517815819">
        <ele>1.2</ele>
        <time>2020-06-02T18:27:48Z</time>
      </trkpt>
      <trkpt lat="51.217887365351" lon="4.461082795209">
        <ele>4.4</ele>
        <time>2020-06-02T18:28:02Z</time>
      </trkpt>
      <trkpt lat="51.217413368906" lon="4.460662023829">
        <ele>1.8</ele>
        <time>2020-06-02T18:28:19Z</time>
      </trkpt>
      <trkpt lat="51.216948844008" lon="4.460221806441">
        <ele>0</ele>
        <time>2020-06-02T18:28:35Z</time>
      </trkpt>
      <trkpt lat="51.216726304563" lon="4.459929445769">
        <ele>0</ele>
        <time>2020-06-02T18:28:46Z</time>
      </trkpt>
      <trkpt lat="51.217042805107" lon="4.459219750296">
        <ele>0.6</ele>
        <time>2020-06-02T18:29:09Z</time>
      </trkpt>
      <trkpt lat="51.217417476037" lon="4.458549617391">
        <ele>0</ele>
        <time>2020-06-02T18:29:28Z</time>
      </trkpt>
      <trkpt lat="51.217746717069" lon="4.457843861411">
        <ele>2.8</ele>
        <time>2020-06-02T18:29:51Z</time>
      </trkpt>
      <trkpt lat="51.218112503185" lon="4.457175991619">
        <ele>0</ele>
        <time>2020-06-02T18:30:11Z</time>
      </trkpt>
      <trkpt lat="51.218543081388" lon="4.456654134525">
        <ele>2</ele>
        <time>2020-06-02T18:30:28Z</time>
      </trkpt>
      <trkpt lat="51.219003834431" lon="4.456145437014">
        <ele>5</ele>
        <time>2020-06-02T18:30:46Z</time>
      </trkpt>
      <trkpt lat="51.219512783399" lon="4.455810161014">
        <ele>7.4</ele>
        <time>2020-06-02T18:31:04Z</time>
      </trkpt>
      <trkpt lat="51.21986809214" lon="4.455448733486">
        <ele>7.6</ele>
        <time>2020-06-02T18:31:18Z</time>
      </trkpt>
      <trkpt lat="51.219847640304" lon="4.455398609724">
        <ele>8.4</ele>
        <time>2020-06-02T18:31:20Z</time>
      </trkpt>
      <trkpt lat="51.219850909245" lon="4.455389641091">
        <ele>9.4</ele>
        <time>2020-06-02T18:31:24Z</time>
      </trkpt>
      <trkpt lat="51.219853926729" lon="4.455390646919">
        <ele>9.6</ele>
        <time>2020-06-02T18:31:25Z</time>
      </trkpt>
      <trkpt lat="51.219875049117" lon="4.455383270847">
        <ele>4.6</ele>
        <time>2020-06-02T18:31:32Z</time>
      </trkpt>
      <trkpt lat="51.219872786004" lon="4.455375308042">
        <ele>2</ele>
        <time>2020-06-02T18:32:22Z</time>
      </trkpt>
      <trkpt lat="51.219908744355" lon="4.455360723536">
        <ele>1.6</ele>
        <time>2020-06-02T18:32:26Z</time>
      </trkpt>
      <trkpt lat="51.220353990883" lon="4.454849259998">
        <ele>0</ele>
        <time>2020-06-02T18:32:45Z</time>
      </trkpt>
      <trkpt lat="51.220763362879" lon="4.454301586652">
        <ele>0</ele>
        <time>2020-06-02T18:33:03Z</time>
      </trkpt>
      <trkpt lat="51.220907699197" lon="4.454226233371">
        <ele>0</ele>
        <time>2020-06-02T18:33:10Z</time>
      </trkpt>
      <trkpt lat="51.220886912085" lon="4.454266298853">
        <ele>0</ele>
        <time>2020-06-02T18:33:13Z</time>
      </trkpt>
      <trkpt lat="51.220802590171" lon="4.454251295252">
        <ele>0</ele>
        <time>2020-06-02T18:33:18Z</time>
      </trkpt>
      <trkpt lat="51.220830418079" lon="4.454191364667">
        <ele>0</ele>
        <time>2020-06-02T18:33:21Z</time>
      </trkpt>
      <trkpt lat="51.221002498486" lon="4.454196393807">
        <ele>0</ele>
        <time>2020-06-02T18:33:30Z</time>
      </trkpt>
      <trkpt lat="51.220995876785" lon="4.454255570021">
        <ele>0</ele>
        <time>2020-06-02T18:33:33Z</time>
      </trkpt>
      <trkpt lat="51.220663785907" lon="4.454390770068">
        <ele>0</ele>
        <time>2020-06-02T18:33:48Z</time>
      </trkpt>
      <trkpt lat="51.220635455085" lon="4.454376604657">
        <ele>0</ele>
        <time>2020-06-02T18:33:50Z</time>
      </trkpt>
      <trkpt lat="51.221145828976" lon="4.454275854219">
        <ele>0</ele>
        <time>2020-06-02T18:34:12Z</time>
      </trkpt>
      <trkpt lat="51.221695933073" lon="4.454307873077">
        <ele>0</ele>
        <time>2020-06-02T18:34:29Z</time>
      </trkpt>
      <trkpt lat="51.222236230347" lon="4.454268729604">
        <ele>0</ele>
        <time>2020-06-02T18:34:49Z</time>
      </trkpt>
      <trkpt lat="51.222799494027" lon="4.454291444553">
        <ele>0</ele>
        <time>2020-06-02T18:35:08Z</time>
      </trkpt>
      <trkpt lat="51.223360997508" lon="4.454368055119">
        <ele>1</ele>
        <time>2020-06-02T18:35:28Z</time>
      </trkpt>
      <trkpt lat="51.223900121316" lon="4.454398816692">
        <ele>0</ele>
        <time>2020-06-02T18:35:46Z</time>
      </trkpt>
      <trkpt lat="51.224460870426" lon="4.454417005415">
        <ele>0</ele>
        <time>2020-06-02T18:36:05Z</time>
      </trkpt>
      <trkpt lat="51.22480167848" lon="4.454354727898">
        <ele>0</ele>
        <time>2020-06-02T18:36:21Z</time>
      </trkpt>
      <trkpt lat="51.22480167848" lon="4.454340394849">
        <ele>0</ele>
        <time>2020-06-02T18:36:25Z</time>
      </trkpt>
      <trkpt lat="51.224264231052" lon="4.45444005564">
        <ele>9.4</ele>
        <time>2020-06-02T18:41:24Z</time>
      </trkpt>
      <trkpt lat="51.224205809209" lon="4.454462016218">
        <ele>7.4</ele>
        <time>2020-06-02T18:41:37Z</time>
      </trkpt>
      <trkpt lat="51.224036578648" lon="4.454442234934">
        <ele>3</ele>
        <time>2020-06-02T18:41:53Z</time>
      </trkpt>
      <trkpt lat="51.223859385282" lon="4.454461513304">
        <ele>4.2</ele>
        <time>2020-06-02T18:42:02Z</time>
      </trkpt>
      <trkpt lat="51.223923758274" lon="4.45448280333">
        <ele>2</ele>
        <time>2020-06-02T18:42:13Z</time>
      </trkpt>
      <trkpt lat="51.224483920651" lon="4.45442580641">
        <ele>0</ele>
        <time>2020-06-02T18:42:30Z</time>
      </trkpt>
      <trkpt lat="51.225037545146" lon="4.454435445595">
        <ele>0</ele>
        <time>2020-06-02T18:42:50Z</time>
      </trkpt>
      <trkpt lat="51.22560382631" lon="4.45443335012">
        <ele>0</ele>
        <time>2020-06-02T18:43:06Z</time>
      </trkpt>
      <trkpt lat="51.226163904868" lon="4.454448102264">
        <ele>0</ele>
        <time>2020-06-02T18:43:22Z</time>
      </trkpt>
      <trkpt lat="51.226713673689" lon="4.454408372058">
        <ele>0</ele>
        <time>2020-06-02T18:43:40Z</time>
      </trkpt>
      <trkpt lat="51.226752314248" lon="4.454379035408">
        <ele>0</ele>
        <time>2020-06-02T18:43:45Z</time>
      </trkpt>
      <trkpt lat="51.226794391386" lon="4.454395128656">
        <ele>2.8</ele>
        <time>2020-06-02T18:46:56Z</time>
      </trkpt>
      <trkpt lat="51.226797073594" lon="4.454300161729">
        <ele>3</ele>
        <time>2020-06-02T18:47:01Z</time>
      </trkpt>
      <trkpt lat="51.226812999204" lon="4.453418888763">
        <ele>0</ele>
        <time>2020-06-02T18:47:23Z</time>
      </trkpt>
      <trkpt lat="51.226812831566" lon="4.453292992625">
        <ele>0</ele>
        <time>2020-06-02T18:47:27Z</time>
      </trkpt>
      <trkpt lat="51.22681333448" lon="4.453250412573">
        <ele>0</ele>
        <time>2020-06-02T18:47:29Z</time>
      </trkpt>
      <trkpt lat="51.226826158787" lon="4.453262482509">
        <ele>0</ele>
        <time>2020-06-02T18:47:31Z</time>
      </trkpt>
      <trkpt lat="51.226826074968" lon="4.453319311791">
        <ele>0</ele>
        <time>2020-06-02T18:47:34Z</time>
      </trkpt>
      <trkpt lat="51.226824063312" lon="4.45328922077">
        <ele>0.2</ele>
        <time>2020-06-02T18:47:39Z</time>
      </trkpt>
      <trkpt lat="51.226884999725" lon="4.452384478484">
        <ele>0</ele>
        <time>2020-06-02T18:48:00Z</time>
      </trkpt>
      <trkpt lat="51.226919449334" lon="4.451506809735">
        <ele>5.2</ele>
        <time>2020-06-02T18:48:17Z</time>
      </trkpt>
      <trkpt lat="51.226940236446" lon="4.450647497347">
        <ele>7.2</ele>
        <time>2020-06-02T18:48:34Z</time>
      </trkpt>
      <trkpt lat="51.226974937512" lon="4.449751556056">
        <ele>6.4</ele>
        <time>2020-06-02T18:48:50Z</time>
      </trkpt>
      <trkpt lat="51.227064623842" lon="4.449444275602">
        <ele>1.8</ele>
        <time>2020-06-02T18:49:00Z</time>
      </trkpt>
      <trkpt lat="51.227298562671" lon="4.448658723934">
        <ele>0</ele>
        <time>2020-06-02T18:49:18Z</time>
      </trkpt>
      <trkpt lat="51.22769008122" lon="4.448009378141">
        <ele>0</ele>
        <time>2020-06-02T18:49:35Z</time>
      </trkpt>
      <trkpt lat="51.228100459044" lon="4.447396661251">
        <ele>0</ele>
        <time>2020-06-02T18:49:52Z</time>
      </trkpt>
      <trkpt lat="51.228499940398" lon="4.446812694278">
        <ele>0</ele>
        <time>2020-06-02T18:50:11Z</time>
      </trkpt>
      <trkpt lat="51.228896320449" lon="4.446203581605">
        <ele>0</ele>
        <time>2020-06-02T18:50:28Z</time>
      </trkpt>
      <trkpt lat="51.229277696899" lon="4.445569407051">
        <ele>0</ele>
        <time>2020-06-02T18:50:45Z</time>
      </trkpt>
      <trkpt lat="51.229628395595" lon="4.44506909144">
        <ele>0</ele>
        <time>2020-06-02T18:51:07Z</time>
      </trkpt>
      <trkpt lat="51.229379117889" lon="4.445358853723">
        <ele>0</ele>
        <time>2020-06-02T18:51:28Z</time>
      </trkpt>
      <trkpt lat="51.229352798723" lon="4.445458514514">
        <ele>0</ele>
        <time>2020-06-02T18:55:59Z</time>
      </trkpt>
      <trkpt lat="51.22893395518" lon="4.446022532565">
        <ele>0</ele>
        <time>2020-06-02T18:56:22Z</time>
      </trkpt>
      <trkpt lat="51.22851653656" lon="4.446638518396">
        <ele>0.6</ele>
        <time>2020-06-02T18:56:43Z</time>
      </trkpt>
      <trkpt lat="51.22814018925" lon="4.447326420929">
        <ele>0</ele>
        <time>2020-06-02T18:57:00Z</time>
      </trkpt>
      <trkpt lat="51.22771522692" lon="4.447890774256">
        <ele>0</ele>
        <time>2020-06-02T18:57:17Z</time>
      </trkpt>
      <trkpt lat="51.22728272088" lon="4.448474908867">
        <ele>0</ele>
        <time>2020-06-02T18:57:36Z</time>
      </trkpt>
      <trkpt lat="51.227069401525" lon="4.449305387519">
        <ele>0</ele>
        <time>2020-06-02T18:57:55Z</time>
      </trkpt>
      <trkpt lat="51.227042327988" lon="4.450178865318">
        <ele>0</ele>
        <time>2020-06-02T18:58:18Z</time>
      </trkpt>
      <trkpt lat="51.227002346325" lon="4.451016300947">
        <ele>0</ele>
        <time>2020-06-02T18:58:44Z</time>
      </trkpt>
      <trkpt lat="51.2269290047" lon="4.451027700331">
        <ele>0.4</ele>
        <time>2020-06-02T18:58:49Z</time>
      </trkpt>
      <trkpt lat="51.226906625027" lon="4.451889108194">
        <ele>3.4</ele>
        <time>2020-06-02T18:59:06Z</time>
      </trkpt>
      <trkpt lat="51.226852142677" lon="4.452759400871">
        <ele>2.4</ele>
        <time>2020-06-02T18:59:24Z</time>
      </trkpt>
      <trkpt lat="51.226842587311" lon="4.453634303593">
        <ele>3</ele>
        <time>2020-06-02T18:59:40Z</time>
      </trkpt>
      <trkpt lat="51.226805120218" lon="4.454483725339">
        <ele>9.2</ele>
        <time>2020-06-02T18:59:58Z</time>
      </trkpt>
      <trkpt lat="51.226749380583" lon="4.454490849954">
        <ele>13.6</ele>
        <time>2020-06-02T19:00:09Z</time>
      </trkpt>
      <trkpt lat="51.226651144715" lon="4.454498058388">
        <ele>12.2</ele>
        <time>2020-06-02T19:00:13Z</time>
      </trkpt>
      <trkpt lat="51.226592722872" lon="4.454527730314">
        <ele>11</ele>
        <time>2020-06-02T19:00:16Z</time>
      </trkpt>
      <trkpt lat="51.226041864404" lon="4.454488419203">
        <ele>7.4</ele>
        <time>2020-06-02T19:00:34Z</time>
      </trkpt>
      <trkpt lat="51.22549737618" lon="4.45447106867">
        <ele>5.6</ele>
        <time>2020-06-02T19:00:49Z</time>
      </trkpt>
      <trkpt lat="51.224947355902" lon="4.454439720364">
        <ele>2.8</ele>
        <time>2020-06-02T19:01:05Z</time>
      </trkpt>
      <trkpt lat="51.224374704494" lon="4.454465536616">
        <ele>5.8</ele>
        <time>2020-06-02T19:01:24Z</time>
      </trkpt>
      <trkpt lat="51.224232463651" lon="4.454453634318">
        <ele>13</ele>
        <time>2020-06-02T19:01:37Z</time>
      </trkpt>
      <trkpt lat="51.223747403098" lon="4.454565700321">
        <ele>5.4</ele>
        <time>2020-06-02T19:09:04Z</time>
      </trkpt>
      <trkpt lat="51.223666433944" lon="4.45438976424">
        <ele>5.4</ele>
        <time>2020-06-02T19:09:10Z</time>
      </trkpt>
      <trkpt lat="51.223480020488" lon="4.454365624368">
        <ele>5.4</ele>
        <time>2020-06-02T19:09:20Z</time>
      </trkpt>
      <trkpt lat="51.222626910706" lon="4.454244841189">
        <ele>4.8</ele>
        <time>2020-06-02T19:09:55Z</time>
      </trkpt>
      <trkpt lat="51.222625066688" lon="4.454172505392">
        <ele>4</ele>
        <time>2020-06-02T19:09:57Z</time>
      </trkpt>
      <trkpt lat="51.222649290379" lon="4.454135122118">
        <ele>3.8</ele>
        <time>2020-06-02T19:09:59Z</time>
      </trkpt>
      <trkpt lat="51.22300208455" lon="4.453464067204">
        <ele>0.6</ele>
        <time>2020-06-02T19:10:18Z</time>
      </trkpt>
      <trkpt lat="51.223329565383" lon="4.452769878246">
        <ele>0</ele>
        <time>2020-06-02T19:10:39Z</time>
      </trkpt>
      <trkpt lat="51.223656208026" lon="4.452055991823">
        <ele>0</ele>
        <time>2020-06-02T19:10:58Z</time>
      </trkpt>
      <trkpt lat="51.224026520368" lon="4.45139910232">
        <ele>0</ele>
        <time>2020-06-02T19:11:20Z</time>
      </trkpt>
      <trkpt lat="51.224435557088" lon="4.45080734018">
        <ele>0</ele>
        <time>2020-06-02T19:11:38Z</time>
      </trkpt>
      <trkpt lat="51.224807210534" lon="4.45015858112">
        <ele>0</ele>
        <time>2020-06-02T19:11:58Z</time>
      </trkpt>
      <trkpt lat="51.225297970779" lon="4.449730685125">
        <ele>0.6</ele>
        <time>2020-06-02T19:12:20Z</time>
      </trkpt>
      <trkpt lat="51.225791329413" lon="4.449659271337">
        <ele>0.6</ele>
        <time>2020-06-02T19:12:37Z</time>
      </trkpt>
      <trkpt lat="51.225837346044" lon="4.449645273564">
        <ele>0</ele>
        <time>2020-06-02T19:12:39Z</time>
      </trkpt>
      <trkpt lat="51.225887050711" lon="4.449572183396">
        <ele>0</ele>
        <time>2020-06-02T19:12:42Z</time>
      </trkpt>
      <trkpt lat="51.226243281461" lon="4.448955946108">
        <ele>0</ele>
        <time>2020-06-02T19:13:04Z</time>
      </trkpt>
      <trkpt lat="51.226509574424" lon="4.44817039444">
        <ele>0</ele>
        <time>2020-06-02T19:13:24Z</time>
      </trkpt>
      <trkpt lat="51.226936129315" lon="4.447592965349">
        <ele>0</ele>
        <time>2020-06-02T19:13:44Z</time>
      </trkpt>
      <trkpt lat="51.227193369826" lon="4.447190298873">
        <ele>0</ele>
        <time>2020-06-02T19:13:56Z</time>
      </trkpt>
      <trkpt lat="51.227594779017" lon="4.446605409891">
        <ele>0</ele>
        <time>2020-06-02T19:14:16Z</time>
      </trkpt>
      <trkpt lat="51.227982022797" lon="4.446002248367">
        <ele>1.4</ele>
        <time>2020-06-02T19:14:34Z</time>
      </trkpt>
      <trkpt lat="51.228065255064" lon="4.445915747159">
        <ele>1</ele>
        <time>2020-06-02T19:14:38Z</time>
      </trkpt>
      <trkpt lat="51.228349485293" lon="4.445192389189">
        <ele>0</ele>
        <time>2020-06-02T19:14:57Z</time>
      </trkpt>
      <trkpt lat="51.228618879559" lon="4.444528291252">
        <ele>0</ele>
        <time>2020-06-02T19:15:16Z</time>
      </trkpt>
      <trkpt lat="51.229039148025" lon="4.443977013689">
        <ele>0</ele>
        <time>2020-06-02T19:15:39Z</time>
      </trkpt>
      <trkpt lat="51.229444748166" lon="4.443797054296">
        <ele>1.6</ele>
        <time>2020-06-02T19:15:54Z</time>
      </trkpt>
      <trkpt lat="51.229689415827" lon="4.44457288296">
        <ele>1</ele>
        <time>2020-06-02T19:16:12Z</time>
      </trkpt>
      <trkpt lat="51.229450615496" lon="4.445263970615">
        <ele>2.2</ele>
        <time>2020-06-02T19:16:37Z</time>
      </trkpt>
      <trkpt lat="51.229047865201" lon="4.445855648936">
        <ele>3</ele>
        <time>2020-06-02T19:16:56Z</time>
      </trkpt>
      <trkpt lat="51.228655592281" lon="4.44649820539">
        <ele>9.2</ele>
        <time>2020-06-02T19:17:13Z</time>
      </trkpt>
      <trkpt lat="51.22826675594" lon="4.447093655566">
        <ele>16.6</ele>
        <time>2020-06-02T19:17:29Z</time>
      </trkpt>
      <trkpt lat="51.228183858949" lon="4.447174373263">
        <ele>3.2</ele>
        <time>2020-06-02T19:17:34Z</time>
      </trkpt>
      <trkpt lat="51.228222248051" lon="4.447218545876">
        <ele>0</ele>
        <time>2020-06-02T19:17:38Z</time>
      </trkpt>
      <trkpt lat="51.228343701782" lon="4.447226005767">
        <ele>0.6</ele>
        <time>2020-06-02T19:17:43Z</time>
      </trkpt>
      <trkpt lat="51.228713762667" lon="4.447854312991">
        <ele>0.6</ele>
        <time>2020-06-02T19:17:59Z</time>
      </trkpt>
      <trkpt lat="51.229051720875" lon="4.448520171127">
        <ele>4</ele>
        <time>2020-06-02T19:18:19Z</time>
      </trkpt>
      <trkpt lat="51.229053061979" lon="4.448644474704">
        <ele>11.8</ele>
        <time>2020-06-02T19:18:26Z</time>
      </trkpt>
      <trkpt lat="51.228921885244" lon="4.448696442484">
        <ele>2.8</ele>
        <time>2020-06-02T19:18:53Z</time>
      </trkpt>
      <trkpt lat="51.228876622984" lon="4.448749751368">
        <ele>2.4</ele>
        <time>2020-06-02T19:18:57Z</time>
      </trkpt>
      <trkpt lat="51.228531037247" lon="4.449283259303">
        <ele>1.4</ele>
        <time>2020-06-02T19:19:28Z</time>
      </trkpt>
      <trkpt lat="51.228529696143" lon="4.449281163828">
        <ele>1.4</ele>
        <time>2020-06-02T19:19:29Z</time>
      </trkpt>
      <trkpt lat="51.228535228197" lon="4.449255347576">
        <ele>0.4</ele>
        <time>2020-06-02T19:19:41Z</time>
      </trkpt>
    </trkseg>
  </trk>
</gpx>